createdAt,value
2019-03-01T00:02:05.712Z,2.11
2019-03-01T00:04:50.433Z,2.10
2019-03-01T00:07:57.634Z,2.10
2019-03-01T00:10:33.246Z,2.07
2019-03-01T00:13:18.144Z,2.02
2019-03-01T00:15:53.364Z,2.00
2019-03-01T00:18:26.078Z,1.99
2019-03-01T00:21:01.477Z,1.98
2019-03-01T00:24:00.549Z,1.98
2019-03-01T00:26:54.445Z,2.00
2019-03-01T00:29:39.188Z,2.03
2019-03-01T00:32:31.584Z,2.04
2019-03-01T00:35:27.236Z,2.11
2019-03-01T00:38:02.632Z,2.20
2019-03-01T00:40:53.287Z,2.30
2019-03-01T00:43:43.782Z,2.36
2019-03-01T00:46:13.407Z,2.40
2019-03-01T00:48:43.032Z,2.44
2019-03-01T00:51:13.937Z,2.46
2019-03-01T00:53:43.623Z,2.44
2019-03-01T00:56:13.249Z,2.40
2019-03-01T00:58:44.518Z,2.37
2019-03-01T01:01:15.133Z,2.35
2019-03-01T01:03:46.132Z,2.34
2019-03-01T01:06:15.932Z,2.32
2019-03-01T01:08:45.653Z,2.33
2019-03-01T01:14:03.859Z,2.34
2019-03-01T01:16:33.475Z,2.36
2019-03-01T01:19:03.100Z,2.35
2019-03-01T01:21:34.731Z,2.35
2019-03-01T01:24:04.427Z,2.37
2019-03-01T01:26:34.115Z,2.35
2019-03-01T01:29:03.774Z,2.32
2019-03-01T01:31:33.406Z,2.29
2019-03-01T01:34:05.923Z,2.28
2019-03-01T01:36:35.937Z,2.24
2019-03-01T01:39:07.862Z,2.21
2019-03-01T01:41:37.760Z,2.19
2019-03-01T01:44:07.413Z,2.14
2019-03-01T01:46:37.114Z,2.10
2019-03-01T01:49:06.867Z,2.04
2019-03-01T01:51:36.629Z,1.96
2019-03-01T01:54:06.400Z,1.93
2019-03-01T01:56:36.149Z,1.91
2019-03-01T01:59:06.170Z,1.89
2019-03-01T02:01:35.911Z,1.87
2019-03-01T02:04:05.655Z,1.79
2019-03-01T02:06:35.483Z,1.70
2019-03-01T02:09:08.248Z,1.61
2019-03-01T02:11:37.871Z,1.53
2019-03-01T02:14:07.925Z,1.46
2019-03-01T02:16:37.554Z,1.41
2019-03-01T02:19:07.347Z,1.34
2019-03-01T02:21:37.978Z,1.25
2019-03-01T02:24:07.615Z,1.16
2019-03-01T02:26:37.241Z,1.11
2019-03-01T02:29:07.438Z,1.08
2019-03-01T02:31:37.810Z,1.07
2019-03-01T02:34:07.437Z,1.09
2019-03-01T02:36:38.089Z,1.14
2019-03-01T02:39:07.952Z,1.18
2019-03-01T02:41:38.444Z,1.19
2019-03-01T02:44:08.214Z,1.19
2019-03-01T02:46:37.845Z,1.18
2019-03-01T02:49:07.458Z,1.19
2019-03-01T02:51:37.117Z,1.20
2019-03-01T02:54:06.803Z,1.16
2019-03-01T02:56:36.607Z,1.11
2019-03-01T02:59:06.859Z,1.05
2019-03-01T03:01:36.484Z,1.03
2019-03-01T03:04:06.109Z,1.02
2019-03-01T03:06:40.375Z,1.02
2019-03-01T03:09:10.603Z,0.98
2019-03-01T03:11:40.235Z,0.95
2019-03-01T03:14:10.179Z,0.93
2019-03-01T03:16:40.774Z,0.93
2019-03-01T03:19:10.396Z,0.95
2019-03-01T03:21:40.056Z,0.99
2019-03-01T03:24:09.754Z,1.06
2019-03-01T03:26:39.370Z,1.10
2019-03-01T03:29:09.438Z,1.14
2019-03-01T03:31:40.759Z,1.14
2019-03-01T03:34:10.870Z,1.09
2019-03-01T03:36:41.104Z,1.06
2019-03-01T03:39:12.188Z,1.04
2019-03-01T03:41:42.474Z,1.03
2019-03-01T03:44:12.250Z,0.98
2019-03-01T03:46:41.858Z,0.96
2019-03-01T03:49:11.480Z,0.92
2019-03-01T03:51:41.298Z,0.87
2019-03-01T03:54:11.883Z,0.85
2019-03-01T03:56:41.523Z,0.81
2019-03-01T03:59:11.553Z,0.78
2019-03-01T04:01:41.187Z,0.78
2019-03-01T04:04:11.955Z,0.77
2019-03-01T04:06:42.247Z,0.77
2019-03-01T04:09:12.845Z,0.74
2019-03-01T04:11:43.653Z,0.77
2019-03-01T04:14:13.323Z,0.80
2019-03-01T04:16:43.203Z,0.84
2019-03-01T04:19:13.130Z,0.87
2019-03-01T04:21:42.820Z,0.86
2019-03-01T04:24:12.467Z,0.84
2019-03-01T04:26:42.071Z,0.82
2019-03-01T04:29:11.729Z,0.84
2019-03-01T04:31:41.681Z,0.92
2019-03-01T04:34:12.098Z,0.95
2019-03-01T04:36:41.754Z,0.99
2019-03-01T04:39:11.373Z,1.00
2019-03-01T04:41:41.065Z,1.05
2019-03-01T04:44:10.743Z,1.08
2019-03-01T04:46:40.362Z,1.09
2019-03-01T04:49:09.979Z,1.12
2019-03-01T04:51:41.210Z,1.15
2019-03-01T04:54:10.860Z,1.16
2019-03-01T04:56:40.547Z,1.14
2019-03-01T04:59:10.341Z,1.10
2019-03-01T05:01:39.973Z,1.09
2019-03-01T05:04:09.594Z,1.07
2019-03-01T05:06:40.152Z,1.11
2019-03-01T05:09:10.043Z,1.25
2019-03-01T05:11:41.310Z,1.34
2019-03-01T05:14:12.645Z,1.33
2019-03-01T05:16:42.277Z,1.32
2019-03-01T05:19:12.567Z,1.31
2019-03-01T05:21:42.299Z,1.28
2019-03-01T05:24:12.040Z,1.21
2019-03-01T05:26:41.667Z,1.13
2019-03-01T05:29:12.521Z,1.09
2019-03-01T05:31:42.138Z,1.03
2019-03-01T05:34:11.863Z,1.02
2019-03-01T05:36:41.519Z,0.99
2019-03-01T05:39:11.410Z,0.97
2019-03-01T05:41:41.159Z,0.95
2019-03-01T05:44:10.821Z,0.95
2019-03-01T05:46:40.451Z,0.98
2019-03-01T05:49:10.078Z,0.96
2019-03-01T05:51:39.862Z,0.97
2019-03-01T05:54:09.499Z,1.00
2019-03-01T05:56:39.196Z,1.04
2019-03-01T05:59:17.519Z,1.03
2019-03-01T06:01:53.075Z,1.03
2019-03-01T06:04:26.926Z,1.06
2019-03-01T06:07:17.959Z,1.11
2019-03-01T06:09:53.236Z,1.19
2019-03-01T06:12:47.349Z,1.23
2019-03-01T06:15:36.749Z,1.26
2019-03-01T06:18:28.863Z,1.30
2019-03-01T06:21:25.630Z,1.36
2019-03-01T06:24:03.894Z,1.42
2019-03-01T06:27:02.351Z,1.46
2019-03-01T06:29:41.755Z,1.50
2019-03-01T06:32:18.663Z,1.56
2019-03-01T06:34:57.077Z,1.60
2019-03-01T06:37:55.621Z,1.63
2019-03-01T06:40:35.743Z,1.69
2019-03-01T06:43:26.400Z,1.71
2019-03-01T06:46:05.515Z,1.73
2019-03-01T06:48:43.524Z,1.75
2019-03-01T06:51:14.791Z,1.79
2019-03-01T06:53:44.417Z,1.84
2019-03-01T06:56:14.086Z,1.89
2019-03-01T06:58:43.716Z,1.93
2019-03-01T07:01:20.816Z,2.00
2019-03-01T07:07:39.608Z,2.30
2019-03-01T07:14:09.845Z,2.48
2019-03-01T07:16:39.468Z,2.58
2019-03-01T07:19:09.100Z,2.66
2019-03-01T07:21:38.954Z,2.74
2019-03-01T07:24:09.332Z,2.83
2019-03-01T07:26:39.819Z,2.92
2019-03-01T07:29:09.603Z,3.02
2019-03-01T07:31:39.294Z,3.14
2019-03-01T07:34:08.934Z,3.25
2019-03-01T07:36:38.612Z,3.35
2019-03-01T07:39:09.884Z,3.42
2019-03-01T07:41:39.516Z,3.51
2019-03-01T07:44:09.491Z,3.59
2019-03-01T07:46:39.128Z,3.67
2019-03-01T07:49:08.760Z,3.74
2019-03-01T07:51:38.424Z,3.77
2019-03-01T07:54:08.050Z,3.84
2019-03-01T07:56:39.927Z,3.87
2019-03-01T07:59:09.353Z,3.91
2019-03-01T08:01:38.983Z,3.97
2019-03-01T08:04:10.254Z,4.06
2019-03-01T08:06:39.916Z,4.10
2019-03-01T08:09:13.317Z,4.13
2019-03-01T08:11:42.931Z,4.11
2019-03-01T08:14:13.387Z,4.05
2019-03-01T08:16:44.393Z,4.07
2019-03-01T08:19:17.045Z,4.16
2019-03-01T08:21:47.508Z,4.24
2019-03-01T08:24:16.835Z,4.32
2019-03-01T08:26:46.557Z,4.46
2019-03-01T08:29:17.474Z,4.61
2019-03-01T08:31:47.378Z,4.69
2019-03-01T08:34:17.790Z,4.78
2019-03-01T08:36:48.440Z,4.88
2019-03-01T08:39:18.074Z,4.99
2019-03-01T08:41:47.699Z,5.11
2019-03-01T08:44:19.316Z,5.24
2019-03-01T08:46:48.716Z,5.33
2019-03-01T08:49:18.343Z,5.45
2019-03-01T08:51:47.984Z,5.63
2019-03-01T08:54:17.691Z,5.79
2019-03-01T08:56:50.283Z,5.93
2019-03-01T08:59:18.953Z,6.06
2019-03-01T09:01:48.675Z,6.20
2019-03-01T09:04:21.380Z,6.28
2019-03-01T09:06:50.299Z,6.41
2019-03-01T09:09:20.899Z,6.53
2019-03-01T09:11:51.479Z,6.60
2019-03-01T09:14:22.713Z,6.72
2019-03-01T09:16:52.467Z,6.80
2019-03-01T09:19:25.247Z,6.90
2019-03-01T09:21:54.011Z,7.02
2019-03-01T09:24:25.721Z,7.14
2019-03-01T09:26:55.978Z,7.27
2019-03-01T09:29:26.233Z,7.28
2019-03-01T09:31:57.883Z,7.24
2019-03-01T09:34:32.030Z,7.20
2019-03-01T09:37:00.265Z,7.18
2019-03-01T09:39:32.532Z,7.17
2019-03-01T09:42:04.398Z,7.14
2019-03-01T09:44:34.609Z,7.09
2019-03-01T09:47:04.738Z,7.04
2019-03-01T09:49:34.556Z,6.99
2019-03-01T09:52:04.505Z,6.95
2019-03-01T09:54:34.780Z,6.95
2019-03-01T09:57:06.959Z,7.03
2019-03-01T09:59:36.694Z,7.10
2019-03-01T10:02:06.309Z,7.17
2019-03-01T10:04:37.484Z,7.24
2019-03-01T10:07:09.487Z,7.32
2019-03-01T10:09:40.043Z,7.38
2019-03-01T10:12:10.130Z,7.38
2019-03-01T10:14:40.050Z,7.35
2019-03-01T10:17:10.862Z,7.30
2019-03-01T10:19:40.675Z,7.28
2019-03-01T10:22:10.997Z,7.34
2019-03-01T10:24:41.188Z,7.29
2019-03-01T10:27:12.665Z,7.27
2019-03-01T10:29:42.348Z,7.22
2019-03-01T10:32:12.592Z,7.16
2019-03-01T10:34:43.483Z,7.09
2019-03-01T10:37:13.129Z,7.06
2019-03-01T10:39:42.742Z,7.05
2019-03-01T10:42:12.613Z,7.03
2019-03-01T10:44:42.951Z,7.05
2019-03-01T10:47:13.495Z,7.10
2019-03-01T10:49:43.611Z,7.18
2019-03-01T10:52:13.375Z,7.28
2019-03-01T10:54:43.160Z,7.40
2019-03-01T10:57:12.776Z,7.52
2019-03-01T10:59:43.734Z,7.56
2019-03-01T11:02:14.561Z,7.56
2019-03-01T11:04:44.213Z,7.54
2019-03-01T11:07:15.243Z,7.48
2019-03-01T11:09:46.503Z,7.39
2019-03-01T11:12:17.238Z,7.35
2019-03-01T11:14:47.642Z,7.32
2019-03-01T11:17:18.517Z,7.29
2019-03-01T11:19:49.181Z,7.25
2019-03-01T11:22:18.829Z,7.22
2019-03-01T11:24:50.009Z,7.08
2019-03-01T11:27:19.754Z,6.89
2019-03-01T11:29:51.507Z,6.73
2019-03-01T11:32:21.154Z,6.54
2019-03-01T11:34:51.854Z,6.33
2019-03-01T11:37:21.534Z,6.24
2019-03-01T11:39:51.631Z,6.28
2019-03-01T11:42:22.009Z,6.37
2019-03-01T11:44:51.789Z,6.53
2019-03-01T11:47:21.528Z,6.82
2019-03-01T11:49:51.148Z,7.28
2019-03-01T11:52:20.793Z,7.78
2019-03-01T11:54:51.464Z,8.01
2019-03-01T11:57:21.248Z,8.05
2019-03-01T11:59:51.609Z,7.88
2019-03-01T12:02:21.900Z,7.58
2019-03-01T12:04:51.516Z,7.33
2019-03-01T12:07:21.162Z,7.22
2019-03-01T12:09:50.776Z,7.21
2019-03-01T12:12:20.760Z,7.15
2019-03-01T12:14:50.552Z,7.06
2019-03-01T12:17:21.001Z,7.05
2019-03-01T12:19:50.612Z,7.08
2019-03-01T12:22:20.355Z,7.20
2019-03-01T12:24:49.979Z,7.24
2019-03-01T12:27:20.064Z,7.21
2019-03-01T12:29:49.825Z,7.25
2019-03-01T12:32:19.557Z,7.28
2019-03-01T12:34:49.449Z,7.32
2019-03-01T12:37:19.281Z,7.46
2019-03-01T12:39:49.254Z,7.63
2019-03-01T12:42:18.875Z,7.76
2019-03-01T12:44:48.544Z,7.80
2019-03-01T12:47:18.192Z,7.85
2019-03-01T12:49:47.819Z,7.91
2019-03-01T12:52:17.476Z,7.98
2019-03-01T12:54:47.087Z,8.10
2019-03-01T12:57:16.733Z,8.26
2019-03-01T12:59:46.611Z,8.51
2019-03-01T13:02:16.234Z,8.68
2019-03-01T13:04:45.854Z,8.81
2019-03-01T13:07:15.596Z,8.96
2019-03-01T13:09:45.335Z,9.25
2019-03-01T13:12:15.239Z,10.48
2019-03-01T13:14:44.905Z,12.69
2019-03-01T13:17:14.524Z,13.25
2019-03-01T13:19:44.162Z,13.07
2019-03-01T13:22:13.839Z,12.81
2019-03-01T13:24:43.469Z,11.81
2019-03-01T13:27:14.160Z,10.78
2019-03-01T13:29:45.630Z,9.95
2019-03-01T13:32:15.426Z,9.31
2019-03-01T13:34:45.805Z,8.97
2019-03-01T13:37:20.132Z,8.85
2019-03-01T13:39:48.626Z,9.18
2019-03-01T13:42:19.341Z,8.71
2019-03-01T13:44:49.127Z,8.17
2019-03-01T13:47:18.751Z,7.66
2019-03-01T13:49:48.435Z,7.25
2019-03-01T13:52:18.260Z,7.05
2019-03-01T13:54:47.981Z,7.29
2019-03-01T13:57:17.605Z,9.87
2019-03-01T13:59:47.730Z,12.38
2019-03-01T14:02:18.483Z,12.14
2019-03-01T14:04:48.191Z,11.82
2019-03-01T14:07:17.972Z,11.50
2019-03-01T14:09:47.612Z,11.22
2019-03-01T14:12:17.370Z,11.59
2019-03-01T14:14:47.675Z,11.09
2019-03-01T14:17:17.467Z,10.65
2019-03-01T14:19:47.207Z,12.28
2019-03-01T14:22:16.870Z,11.66
2019-03-01T14:24:46.959Z,13.79
2019-03-01T14:27:16.756Z,15.07
2019-03-01T14:29:52.507Z,15.89
2019-03-01T14:32:20.921Z,14.52
2019-03-01T14:34:49.872Z,13.26
2019-03-01T14:37:19.607Z,11.80
2019-03-01T14:39:49.482Z,10.67
2019-03-01T14:42:19.115Z,9.77
2019-03-01T14:44:50.342Z,9.07
2019-03-01T14:47:19.957Z,8.46
2019-03-01T14:49:49.847Z,7.99
2019-03-01T14:52:21.371Z,7.59
2019-03-01T14:54:50.814Z,7.23
2019-03-01T14:57:23.755Z,6.93
2019-03-01T14:59:56.944Z,6.65
2019-03-01T15:02:32.370Z,6.42
2019-03-01T15:05:05.595Z,6.15
2019-03-01T15:07:36.296Z,6.01
2019-03-01T15:10:12.357Z,5.86
2019-03-01T15:12:43.115Z,5.67
2019-03-01T15:15:13.982Z,5.51
2019-03-01T15:17:44.639Z,5.36
2019-03-01T15:20:17.264Z,5.26
2019-03-01T15:22:48.712Z,5.14
2019-03-01T15:25:18.316Z,5.12
2019-03-01T15:27:47.974Z,5.21
2019-03-01T15:30:19.022Z,5.29
2019-03-01T15:32:48.628Z,5.32
2019-03-01T15:35:18.332Z,5.29
2019-03-01T15:37:47.955Z,5.16
2019-03-01T15:40:17.651Z,5.04
2019-03-01T15:42:47.309Z,4.94
2019-03-01T15:45:16.920Z,4.93
2019-03-01T15:47:46.557Z,4.91
2019-03-01T15:50:16.299Z,4.88
2019-03-01T15:52:49.659Z,4.76
2019-03-01T15:55:17.303Z,4.63
2019-03-01T15:57:47.098Z,4.49
2019-03-01T16:00:25.692Z,4.38
2019-03-01T16:02:54.102Z,4.30
2019-03-01T16:05:23.762Z,4.19
2019-03-01T16:07:53.463Z,4.11
2019-03-01T16:10:23.121Z,4.02
2019-03-01T16:12:52.843Z,3.94
2019-03-01T16:15:22.582Z,3.87
2019-03-01T16:17:52.444Z,3.82
2019-03-01T16:20:25.144Z,3.78
2019-03-01T16:22:54.033Z,3.73
2019-03-01T16:25:25.305Z,3.68
2019-03-01T16:27:55.179Z,3.65
2019-03-01T16:30:25.451Z,3.63
2019-03-01T16:32:55.251Z,3.56
2019-03-01T16:35:25.760Z,3.50
2019-03-01T16:37:57.796Z,3.45
2019-03-01T16:40:28.375Z,3.44
2019-03-01T16:42:59.588Z,3.38
2019-03-01T16:45:29.216Z,3.38
2019-03-01T16:48:00.838Z,3.42
2019-03-01T16:50:30.230Z,3.42
2019-03-01T16:53:04.592Z,3.39
2019-03-01T16:55:34.391Z,3.37
2019-03-01T16:58:07.475Z,3.35
2019-03-01T17:00:35.475Z,3.33
2019-03-01T17:03:10.239Z,3.31
2019-03-01T17:05:39.850Z,3.30
2019-03-01T17:08:11.761Z,3.30
2019-03-01T17:10:42.610Z,3.29
2019-03-01T17:13:12.234Z,3.28
2019-03-01T17:15:45.594Z,3.28
2019-03-01T17:18:15.984Z,3.28
2019-03-01T17:20:45.871Z,3.28
2019-03-01T17:23:16.019Z,3.25
2019-03-01T17:25:47.716Z,3.19
2019-03-01T17:28:22.626Z,3.17
2019-03-01T17:30:50.866Z,3.14
2019-03-01T17:33:20.375Z,3.13
2019-03-01T17:35:52.138Z,3.13
2019-03-01T17:38:23.388Z,3.11
2019-03-01T17:40:53.393Z,3.11
2019-03-01T17:43:23.017Z,3.12
2019-03-01T17:45:54.427Z,3.13
2019-03-01T17:48:25.056Z,3.11
2019-03-01T17:50:54.695Z,3.10
2019-03-01T17:53:24.320Z,3.04
2019-03-01T17:55:54.668Z,3.00
2019-03-01T17:58:24.317Z,2.92
2019-03-01T18:00:53.949Z,2.85
2019-03-01T18:03:23.606Z,2.79
2019-03-01T18:05:55.484Z,2.73
2019-03-01T18:08:25.238Z,2.64
2019-03-01T18:10:56.692Z,2.55
2019-03-01T18:13:26.314Z,2.48
2019-03-01T18:15:56.225Z,2.45
2019-03-01T18:18:26.066Z,2.45
2019-03-01T18:20:55.694Z,2.49
2019-03-01T18:23:25.584Z,2.54
2019-03-01T18:25:55.420Z,2.60
2019-03-01T18:28:28.322Z,2.60
2019-03-01T18:30:58.940Z,2.63
2019-03-01T18:33:28.914Z,2.66
2019-03-01T18:35:59.423Z,2.72
2019-03-01T18:38:31.335Z,2.75
2019-03-01T18:41:02.829Z,2.79
2019-03-01T18:43:32.482Z,2.81
2019-03-01T18:46:02.260Z,2.85
2019-03-01T18:48:33.643Z,2.87
2019-03-01T18:51:08.513Z,2.88
2019-03-01T18:53:38.635Z,2.89
2019-03-01T18:56:08.399Z,2.90
2019-03-01T18:58:38.121Z,2.93
2019-03-01T19:01:10.870Z,2.95
2019-03-01T19:03:41.487Z,2.96
2019-03-01T19:06:16.281Z,2.96
2019-03-01T19:08:45.003Z,2.97
2019-03-01T19:11:14.609Z,2.95
2019-03-01T19:13:44.271Z,2.94
2019-03-01T19:16:14.260Z,2.94
2019-03-01T19:18:43.903Z,2.92
2019-03-01T19:21:13.968Z,3.08
2019-03-01T19:23:45.043Z,3.12
2019-03-01T19:26:14.663Z,3.11
2019-03-01T19:28:45.914Z,3.09
2019-03-01T19:31:15.635Z,3.08
2019-03-01T19:33:45.262Z,3.05
2019-03-01T19:36:15.362Z,3.05
2019-03-01T19:38:46.456Z,3.04
2019-03-01T19:41:20.023Z,3.05
2019-03-01T19:43:55.568Z,3.02
2019-03-01T19:46:20.329Z,3.01
2019-03-01T19:48:49.948Z,2.93
2019-03-01T19:51:19.408Z,2.94
2019-03-01T19:53:49.084Z,2.95
2019-03-01T19:56:18.962Z,2.95
2019-03-01T19:58:50.040Z,2.96
2019-03-01T20:01:19.773Z,2.95
2019-03-01T20:03:49.575Z,2.95
2019-03-01T20:06:19.205Z,2.96
2019-03-01T20:08:49.073Z,2.94
2019-03-01T20:11:19.483Z,2.92
2019-03-01T20:13:50.551Z,2.92
2019-03-01T20:16:22.584Z,2.92
2019-03-01T20:18:52.487Z,2.88
2019-03-01T20:21:22.187Z,2.86
2019-03-01T20:23:52.000Z,2.86
2019-03-01T20:26:23.529Z,2.83
2019-03-01T20:28:53.064Z,2.79
2019-03-01T20:31:23.862Z,2.80
2019-03-01T20:33:53.562Z,2.80
2019-03-01T20:36:23.195Z,2.83
2019-03-01T20:38:53.151Z,2.98
2019-03-01T20:41:22.807Z,3.03
2019-03-01T20:43:53.973Z,3.01
2019-03-01T20:46:24.497Z,2.99
2019-03-01T20:48:54.279Z,2.97
2019-03-01T20:51:26.885Z,2.96
2019-03-01T20:53:55.399Z,2.96
2019-03-01T20:56:25.211Z,2.94
2019-03-01T20:58:54.821Z,2.90
2019-03-01T21:01:24.586Z,2.86
2019-03-01T21:03:54.212Z,2.84
2019-03-01T21:06:24.393Z,2.84
2019-03-01T21:08:54.974Z,2.80
2019-03-01T21:11:25.499Z,2.81
2019-03-01T21:13:56.206Z,2.80
2019-03-01T21:16:25.882Z,2.78
2019-03-01T21:18:55.781Z,2.80
2019-03-01T21:21:28.859Z,2.79
2019-03-01T21:23:58.527Z,2.79
2019-03-01T21:26:28.156Z,2.76
2019-03-01T21:28:58.983Z,2.70
2019-03-01T21:31:31.802Z,2.66
2019-03-01T21:34:02.730Z,2.67
2019-03-01T21:36:33.808Z,2.64
2019-03-01T21:39:04.829Z,2.63
2019-03-01T21:41:34.824Z,2.67
2019-03-01T21:44:10.120Z,2.70
2019-03-01T21:46:35.840Z,2.70
2019-03-01T21:49:05.535Z,2.69
2019-03-01T21:51:35.480Z,2.67
2019-03-01T21:54:26.184Z,2.65
2019-03-01T21:56:57.060Z,2.65
2019-03-01T21:59:26.954Z,2.64
2019-03-01T22:01:57.002Z,2.64
2019-03-01T22:04:26.612Z,2.62
2019-03-01T22:07:01.763Z,2.60
2019-03-01T22:09:28.423Z,2.60
2019-03-01T22:11:58.236Z,2.59
2019-03-01T22:14:29.174Z,2.52
2019-03-01T22:16:59.089Z,2.44
2019-03-01T22:19:30.520Z,2.34
2019-03-01T22:22:00.172Z,2.22
2019-03-01T22:24:29.862Z,2.09
2019-03-01T22:26:59.483Z,1.93
2019-03-01T22:29:29.271Z,1.79
2019-03-01T22:31:59.060Z,1.65
2019-03-01T22:34:31.088Z,1.51
2019-03-01T22:36:59.998Z,1.40
2019-03-01T22:39:29.772Z,1.27
2019-03-01T22:41:59.400Z,1.18
2019-03-01T22:44:29.135Z,1.10
2019-03-01T22:47:00.727Z,1.03
2019-03-01T22:49:31.730Z,0.97
2019-03-01T22:52:02.261Z,0.91
2019-03-01T22:54:31.930Z,0.86
2019-03-01T22:57:01.565Z,0.82
2019-03-01T22:59:31.220Z,0.89
2019-03-01T23:02:04.472Z,0.98
2019-03-01T23:04:33.703Z,0.92
2019-03-01T23:07:03.342Z,0.82
2019-03-01T23:09:33.062Z,0.73
2019-03-01T23:12:04.709Z,0.66
2019-03-01T23:14:35.080Z,0.58
2019-03-01T23:17:04.852Z,0.52
2019-03-01T23:19:35.115Z,0.47
2019-03-01T23:22:07.566Z,0.42
2019-03-01T23:24:37.481Z,0.37
2019-03-01T23:27:07.603Z,0.31
2019-03-01T23:29:37.345Z,0.27
2019-03-01T23:32:07.029Z,0.22
2019-03-01T23:34:38.893Z,0.17
2019-03-01T23:37:08.490Z,0.12
2019-03-01T23:39:38.136Z,0.04
2019-03-01T23:42:08.131Z,-0.02
2019-03-01T23:44:38.669Z,-0.04
2019-03-01T23:47:09.268Z,0.09
2019-03-01T23:49:39.155Z,0.15
2019-03-01T23:52:08.904Z,0.09
2019-03-01T23:54:40.713Z,0.01
2019-03-01T23:57:10.326Z,-0.05
2019-03-01T23:59:39.962Z,-0.13
